Time,TemperatureF,DewpointF,PressureIn,WindDirection,WindDirectionDegrees,WindSpeedMPH,WindSpeedGustMPH,Humidity,HourlyPrecipIn,Conditions,Clouds,dailyrainin,SoftwareType,DateUTC
2013-01-15 00:02:00,33.7,32.0,30.37,NW,307,0.0,0.0,93,0.00,,,0.00,weatherlink.com 1.10,2013-01-15 08:02:00,
2013-01-15 00:17:00,33.5,32.0,30.37,NW,307,0.0,0.0,93,0.00,,,0.00,weatherlink.com 1.10,2013-01-15 08:17:00,
2013-01-15 00:32:00,33.7,32.0,30.37,NW,308,0.0,0.0,94,0.00,,,0.00,weatherlink.com 1.10,2013-01-15 08:32:00,
2013-01-15 00:47:00,33.6,32.0,30.38,WNW,302,1.0,3.0,93,0.00,,,0.00,weatherlink.com 1.10,2013-01-15 08:47:00,
2013-01-15 01:02:00,32.7,31.0,30.37,WNW,302,0.0,0.0,92,0.00,,,0.00,weatherlink.com 1.10,2013-01-15 09:02:00,
2013-01-15 01:17:00,32.1,30.0,30.37,WNW,302,0.0,0.0,93,0.00,,,0.00,weatherlink.com 1.10,2013-01-15 09:17:00,
2013-01-15 01:32:00,32.5,31.0,30.38,WNW,302,0.0,0.0,95,0.00,,,0.00,weatherlink.com 1.10,2013-01-15 09:32:00,
2013-01-15 01:47:00,32.4,31.0,30.38,WNW,302,0.0,0.0,94,0.00,,,0.00,weatherlink.com 1.10,2013-01-15 09:47:00,
2013-01-15 02:02:00,31.6,30.0,30.39,WNW,302,0.0,0.0,93,0.00,,,0.00,weatherlink.com 1.10,2013-01-15 10:02:00,
2013-01-15 02:17:00,31.6,30.0,30.39,WNW,302,0.0,0.0,94,0.00,,,0.00,weatherlink.com 1.10,2013-01-15 10:17:00,
2013-01-15 02:32:00,31.0,30.0,30.40,WNW,302,0.0,0.0,94,0.00,,,0.00,weatherlink.com 1.10,2013-01-15 10:32:00,
2013-01-15 02:47:00,31.5,30.0,30.40,WNW,302,0.0,2.0,95,0.00,,,0.00,weatherlink.com 1.10,2013-01-15 10:47:00,
2013-01-15 03:02:00,31.5,30.0,30.40,WNW,302,0.0,0.0,95,0.00,,,0.00,weatherlink.com 1.10,2013-01-15 11:02:00,
2013-01-15 03:17:00,31.4,30.0,30.40,WNW,302,0.0,1.0,95,0.00,,,0.00,weatherlink.com 1.10,2013-01-15 11:17:00,
2013-01-15 03:32:00,30.9,29.0,30.39,WNW,302,0.0,0.0,94,0.00,,,0.00,weatherlink.com 1.10,2013-01-15 11:32:00,
2013-01-15 03:47:00,30.7,30.0,30.40,WNW,302,0.0,0.0,95,0.00,,,0.00,weatherlink.com 1.10,2013-01-15 11:47:00,
2013-01-15 04:02:00,31.2,30.0,30.40,WNW,302,0.0,0.0,95,0.00,,,0.00,weatherlink.com 1.10,2013-01-15 12:02:00,
2013-01-15 04:17:00,31.2,30.0,30.40,WNW,302,0.0,0.0,95,0.00,,,0.00,weatherlink.com 1.10,2013-01-15 12:17:00,
2013-01-15 04:32:00,31.4,30.0,30.40,WNW,302,0.0,0.0,95,0.00,,,0.00,weatherlink.com 1.10,2013-01-15 12:32:00,
2013-01-15 04:47:00,30.8,30.0,30.40,WNW,302,0.0,0.0,95,0.00,,,0.00,weatherlink.com 1.10,2013-01-15 12:47:00,
2013-01-15 05:02:00,30.6,29.0,30.40,WNW,302,0.0,0.0,95,0.00,,,0.00,weatherlink.com 1.10,2013-01-15 13:02:00,
2013-01-15 05:17:00,30.3,29.0,30.40,WNW,302,0.0,0.0,95,0.00,,,0.00,weatherlink.com 1.10,2013-01-15 13:17:00,
2013-01-15 05:32:00,30.1,29.0,30.40,WNW,302,0.0,1.0,95,0.00,,,0.00,weatherlink.com 1.10,2013-01-15 13:32:00,
2013-01-15 05:47:00,30.0,29.0,30.40,WNW,302,0.0,0.0,95,0.00,,,0.00,weatherlink.com 1.10,2013-01-15 13:47:00,
2013-01-15 06:02:00,30.2,29.0,30.41,WNW,302,0.0,1.0,95,0.00,,,0.00,weatherlink.com 1.10,2013-01-15 14:02:00,
2013-01-15 06:17:00,29.8,29.0,30.41,WNW,302,0.0,0.0,95,0.00,,,0.00,weatherlink.com 1.10,2013-01-15 14:17:00,
2013-01-15 06:32:00,30.5,30.0,30.41,WNW,302,0.0,0.0,96,0.00,,,0.00,weatherlink.com 1.10,2013-01-15 14:32:00,
2013-01-15 06:47:00,30.2,29.0,30.42,WNW,302,0.0,0.0,95,0.00,,,0.00,weatherlink.com 1.10,2013-01-15 14:47:00,
2013-01-15 07:02:00,29.4,28.0,30.43,WNW,302,0.0,0.0,95,0.00,,,0.00,weatherlink.com 1.10,2013-01-15 15:02:00,
2013-01-15 07:17:00,29.2,28.0,30.43,WNW,302,0.0,0.0,95,0.00,,,0.00,weatherlink.com 1.10,2013-01-15 15:17:00,
2013-01-15 07:33:00,29.6,28.0,30.43,WNW,302,1.0,2.0,95,0.00,,,0.00,weatherlink.com 1.10,2013-01-15 15:33:00,
2013-01-15 07:48:00,29.3,28.0,30.44,WNW,302,0.0,2.0,95,0.00,,,0.00,weatherlink.com 1.10,2013-01-15 15:48:00,
2013-01-15 08:03:00,29.2,28.0,30.45,WNW,302,0.0,0.0,95,0.00,,,0.00,weatherlink.com 1.10,2013-01-15 16:03:00,
2013-01-15 08:18:00,29.8,29.0,30.45,WNW,303,0.0,0.0,96,0.00,,,0.00,weatherlink.com 1.10,2013-01-15 16:18:00,
2013-01-15 08:33:00,30.8,30.0,30.45,WNW,303,0.0,0.0,96,0.00,,,0.00,weatherlink.com 1.10,2013-01-15 16:33:00,
2013-01-15 08:48:00,31.6,31.0,30.46,WNW,303,0.0,0.0,96,0.00,,,0.00,weatherlink.com 1.10,2013-01-15 16:48:00,
2013-01-15 09:03:00,32.3,31.0,30.46,WNW,303,0.0,1.0,96,0.00,,,0.00,weatherlink.com 1.10,2013-01-15 17:03:00,
2013-01-15 09:18:00,33.2,32.0,30.45,WNW,303,0.0,0.0,96,0.00,,,0.00,weatherlink.com 1.10,2013-01-15 17:18:00,
2013-01-15 09:33:00,34.4,33.0,30.46,WNW,303,0.0,1.0,96,0.00,,,0.00,weatherlink.com 1.10,2013-01-15 17:33:00,
2013-01-15 09:48:00,36.0,35.0,30.46,ENE,77,1.0,3.0,96,0.00,,,0.00,weatherlink.com 1.10,2013-01-15 17:48:00,
2013-01-15 10:03:00,39.0,37.0,30.46,East,90,1.0,3.0,91,0.00,,,0.00,weatherlink.com 1.10,2013-01-15 18:03:00,
2013-01-15 10:18:00,41.4,37.0,30.46,East,95,0.0,3.0,84,0.00,,,0.00,weatherlink.com 1.10,2013-01-15 18:18:00,
2013-01-15 10:33:00,42.5,36.0,30.45,North,9,0.0,3.0,78,0.00,,,0.00,weatherlink.com 1.10,2013-01-15 18:33:00,
2013-01-15 10:48:00,44.6,37.0,30.45,NE,46,0.0,2.0,74,0.00,,,0.00,weatherlink.com 1.10,2013-01-15 18:48:00,
2013-01-15 11:03:00,46.0,36.0,30.45,SW,217,1.0,3.0,68,0.00,,,0.00,weatherlink.com 1.10,2013-01-15 19:03:00,
2013-01-15 11:18:00,46.9,36.0,30.44,SSW,202,1.0,4.0,66,0.00,,,0.00,weatherlink.com 1.10,2013-01-15 19:18:00,
2013-01-15 11:33:00,47.5,37.0,30.43,WSW,252,0.0,3.0,66,0.00,,,0.00,weatherlink.com 1.10,2013-01-15 19:33:00,
2013-01-15 11:48:00,48.6,37.0,30.43,SSW,205,2.0,3.0,64,0.00,,,0.00,weatherlink.com 1.10,2013-01-15 19:48:00,
2013-01-15 12:03:00,48.6,36.0,30.42,SW,219,3.0,4.0,62,0.00,,,0.00,weatherlink.com 1.10,2013-01-15 20:03:00,
2013-01-15 12:18:00,49.0,36.0,30.41,SW,219,2.0,3.0,61,0.00,,,0.00,weatherlink.com 1.10,2013-01-15 20:18:00,
2013-01-15 12:33:00,49.8,36.0,30.41,SSE,165,0.0,4.0,60,0.00,,,0.00,weatherlink.com 1.10,2013-01-15 20:33:00,
2013-01-15 12:48:00,50.5,37.0,30.40,SSE,152,0.0,3.0,60,0.00,,,0.00,weatherlink.com 1.10,2013-01-15 20:48:00,
2013-01-15 13:03:00,50.8,37.0,30.40,SSE,167,3.0,4.0,59,0.00,,,0.00,weatherlink.com 1.10,2013-01-15 21:03:00,
2013-01-15 13:19:00,51.7,36.0,30.39,SSW,211,3.0,5.0,56,0.00,,,0.00,weatherlink.com 1.10,2013-01-15 21:19:00,
2013-01-15 13:34:00,52.4,37.0,30.39,SSE,167,1.0,3.0,57,0.00,,,0.00,weatherlink.com 1.10,2013-01-15 21:34:00,
2013-01-15 13:49:00,52.7,36.0,30.39,SSE,154,0.0,3.0,54,0.00,,,0.00,weatherlink.com 1.10,2013-01-15 21:49:00,
2013-01-15 14:04:00,52.8,37.0,30.39,SSW,208,0.0,7.0,56,0.00,,,0.00,weatherlink.com 1.10,2013-01-15 22:04:00,
2013-01-15 14:19:00,53.2,36.0,30.38,SSE,154,1.0,5.0,53,0.00,,,0.00,weatherlink.com 1.10,2013-01-15 22:19:00,
2013-01-15 14:34:00,54.0,36.0,30.38,South,177,0.0,3.0,50,0.00,,,0.00,weatherlink.com 1.10,2013-01-15 22:34:00,
2013-01-15 14:49:00,54.3,36.0,30.38,SSE,161,1.0,2.0,50,0.00,,,0.00,weatherlink.com 1.10,2013-01-15 22:49:00,
2013-01-15 15:04:00,54.4,35.0,30.38,SSE,159,2.0,4.0,49,0.00,,,0.00,weatherlink.com 1.10,2013-01-15 23:04:00,
2013-01-15 15:19:00,54.5,35.0,30.38,SSE,164,1.0,3.0,49,0.00,,,0.00,weatherlink.com 1.10,2013-01-15 23:19:00,
2013-01-15 15:34:00,54.4,35.0,30.38,SE,138,4.0,4.0,49,0.00,,,0.00,weatherlink.com 1.10,2013-01-15 23:34:00,
2013-01-15 15:49:00,54.0,35.0,30.38,SSE,162,0.0,3.0,49,0.00,,,0.00,weatherlink.com 1.10,2013-01-15 23:49:00,
2013-01-15 16:04:00,53.0,36.0,30.38,SSE,162,0.0,2.0,52,0.00,,,0.00,weatherlink.com 1.10,2013-01-16 00:04:00,
2013-01-15 16:19:00,52.3,35.0,30.38,SW,224,0.0,2.0,53,0.00,,,0.00,weatherlink.com 1.10,2013-01-16 00:19:00,
2013-01-15 16:34:00,51.6,35.0,30.39,SW,218,0.0,2.0,54,0.00,,,0.00,weatherlink.com 1.10,2013-01-16 00:34:00,
2013-01-15 16:49:00,50.4,35.0,30.39,NW,322,0.0,2.0,55,0.00,,,0.00,weatherlink.com 1.10,2013-01-16 00:49:00,
2013-01-15 17:04:00,49.0,35.0,30.39,SSW,208,0.0,2.0,58,0.00,,,0.00,weatherlink.com 1.10,2013-01-16 01:04:00,
2013-01-15 17:19:00,47.2,34.0,30.39,SSW,209,0.0,2.0,60,0.00,,,0.00,weatherlink.com 1.10,2013-01-16 01:19:00,
2013-01-15 17:34:00,46.2,34.0,30.39,SSW,211,0.0,3.0,62,0.00,,,0.00,weatherlink.com 1.10,2013-01-16 01:34:00,
2013-01-15 17:49:00,45.6,34.0,30.39,SSW,210,0.0,0.0,63,0.00,,,0.00,weatherlink.com 1.10,2013-01-16 01:49:00,
2013-01-15 18:04:00,44.9,33.0,30.39,SSW,210,0.0,0.0,64,0.00,,,0.00,weatherlink.com 1.10,2013-01-16 02:04:00,
2013-01-15 18:19:00,44.1,33.0,30.40,SSW,210,0.0,0.0,66,0.00,,,0.00,weatherlink.com 1.10,2013-01-16 02:19:00,
2013-01-15 18:34:00,43.0,33.0,30.40,SSW,210,0.0,0.0,68,0.00,,,0.00,weatherlink.com 1.10,2013-01-16 02:34:00,
2013-01-15 18:49:00,42.3,33.0,30.40,SSW,210,0.0,0.0,70,0.00,,,0.00,weatherlink.com 1.10,2013-01-16 02:49:00,
2013-01-15 19:04:00,42.0,33.0,30.40,SSW,210,0.0,0.0,70,0.00,,,0.00,weatherlink.com 1.10,2013-01-16 03:04:00,
2013-01-15 19:19:00,41.3,34.0,30.40,SSW,210,0.0,0.0,75,0.00,,,0.00,weatherlink.com 1.10,2013-01-16 03:19:00,
2013-01-15 19:34:00,40.4,35.0,30.40,SSW,210,0.0,0.0,81,0.00,,,0.00,weatherlink.com 1.10,2013-01-16 03:34:00,
2013-01-15 19:49:00,39.8,35.0,30.40,SSW,210,0.0,0.0,83,0.00,,,0.00,weatherlink.com 1.10,2013-01-16 03:49:00,
2013-01-15 20:04:00,39.4,35.0,30.40,SSW,210,0.0,0.0,85,0.00,,,0.00,weatherlink.com 1.10,2013-01-16 04:04:00,
2013-01-15 20:19:00,38.8,35.0,30.40,SSW,210,0.0,0.0,86,0.00,,,0.00,weatherlink.com 1.10,2013-01-16 04:19:00,
2013-01-15 20:34:00,38.4,34.0,30.39,SSW,210,0.0,0.0,85,0.00,,,0.00,weatherlink.com 1.10,2013-01-16 04:34:00,
2013-01-15 20:49:00,38.4,33.0,30.40,SSW,210,0.0,0.0,82,0.00,,,0.00,weatherlink.com 1.10,2013-01-16 04:49:00,
2013-01-15 21:04:00,38.1,33.0,30.39,SSW,210,0.0,0.0,83,0.00,,,0.00,weatherlink.com 1.10,2013-01-16 05:04:00,
2013-01-15 21:19:00,37.1,33.0,30.39,SSW,210,0.0,0.0,86,0.00,,,0.00,weatherlink.com 1.10,2013-01-16 05:19:00,
2013-01-15 21:34:00,36.7,33.0,30.40,SSW,210,0.0,0.0,86,0.00,,,0.00,weatherlink.com 1.10,2013-01-16 05:34:00,
2013-01-15 21:49:00,35.6,32.0,30.40,SSW,210,0.0,0.0,88,0.00,,,0.00,weatherlink.com 1.10,2013-01-16 05:49:00,
2013-01-15 22:04:00,35.1,32.0,30.40,SSW,210,0.0,0.0,89,0.00,,,0.00,weatherlink.com 1.10,2013-01-16 06:04:00,
2013-01-15 22:19:00,34.9,32.0,30.40,SSW,210,0.0,0.0,90,0.00,,,0.00,weatherlink.com 1.10,2013-01-16 06:19:00,
2013-01-15 22:34:00,34.7,32.0,30.40,SSW,210,0.0,0.0,91,0.00,,,0.00,weatherlink.com 1.10,2013-01-16 06:34:00,
2013-01-15 22:49:00,34.6,33.0,30.40,SSW,210,0.0,0.0,92,0.00,,,0.00,weatherlink.com 1.10,2013-01-16 06:49:00,
2013-01-15 23:04:00,34.7,33.0,30.40,SSW,210,0.0,0.0,92,0.00,,,0.00,weatherlink.com 1.10,2013-01-16 07:04:00,
2013-01-15 23:19:00,34.7,33.0,30.40,SSW,210,0.0,0.0,93,0.00,,,0.00,weatherlink.com 1.10,2013-01-16 07:19:00,
2013-01-15 23:34:00,33.8,32.0,30.41,SSW,210,0.0,1.0,92,0.00,,,0.00,weatherlink.com 1.10,2013-01-16 07:34:00,
2013-01-15 23:49:00,33.2,31.0,30.41,SSW,210,0.0,0.0,93,0.00,,,0.00,weatherlink.com 1.10,2013-01-16 07:49:00,